sensor_id;sensor_type;location;lat;lon;timestamp;P1;durP1;ratioP1;P2;durP2;ratioP2
17631;SDS011;8934;51.194;17.150;2023-12-04T00:00:51;14.20;;;8.77;;
17631;SDS011;8934;51.194;17.150;2023-12-04T00:03:40;10.98;;;6.07;;
17631;SDS011;8934;51.194;17.150;2023-12-04T00:06:28;13.48;;;5.60;;
17631;SDS011;8934;51.194;17.150;2023-12-04T00:09:16;23.67;;;7.45;;
17631;SDS011;8934;51.194;17.150;2023-12-04T00:12:03;9.27;;;5.60;;
17631;SDS011;8934;51.194;17.150;2023-12-04T00:14:51;27.63;;;10.55;;
17631;SDS011;8934;51.194;17.150;2023-12-04T00:17:38;15.07;;;5.85;;
17631;SDS011;8934;51.194;17.150;2023-12-04T00:20:28;15.50;;;8.25;;
17631;SDS011;8934;51.194;17.150;2023-12-04T00:23:16;15.02;;;9.27;;
17631;SDS011;8934;51.194;17.150;2023-12-04T00:26:04;15.27;;;9.50;;
17631;SDS011;8934;51.194;17.150;2023-12-04T00:28:53;17.95;;;7.43;;
17631;SDS011;8934;51.194;17.150;2023-12-04T00:31:41;28.02;;;12.73;;
17631;SDS011;8934;51.194;17.150;2023-12-04T00:34:28;32.65;;;11.90;;
17631;SDS011;8934;51.194;17.150;2023-12-04T00:37:17;17.13;;;10.15;;
17631;SDS011;8934;51.194;17.150;2023-12-04T00:40:05;17.42;;;9.50;;
17631;SDS011;8934;51.194;17.150;2023-12-04T00:42:54;35.40;;;14.15;;
17631;SDS011;8934;51.194;17.150;2023-12-04T00:45:41;14.57;;;6.03;;
17631;SDS011;8934;51.194;17.150;2023-12-04T00:48:29;35.60;;;11.38;;
17631;SDS011;8934;51.194;17.150;2023-12-04T00:51:17;22.77;;;10.18;;
17631;SDS011;8934;51.194;17.150;2023-12-04T00:54:06;28.70;;;11.50;;
17631;SDS011;8934;51.194;17.150;2023-12-04T00:56:53;14.52;;;11.82;;
17631;SDS011;8934;51.194;17.150;2023-12-04T00:59:41;34.53;;;11.95;;
17631;SDS011;8934;51.194;17.150;2023-12-04T01:02:28;33.42;;;12.68;;
17631;SDS011;8934;51.194;17.150;2023-12-04T01:05:16;23.73;;;11.77;;
17631;SDS011;8934;51.194;17.150;2023-12-04T01:08:04;17.30;;;10.07;;
17631;SDS011;8934;51.194;17.150;2023-12-04T01:10:53;23.55;;;10.60;;
17631;SDS011;8934;51.194;17.150;2023-12-04T01:13:40;27.92;;;10.20;;
17631;SDS011;8934;51.194;17.150;2023-12-04T01:16:28;19.52;;;11.52;;
17631;SDS011;8934;51.194;17.150;2023-12-04T01:19:18;24.55;;;9.63;;
17631;SDS011;8934;51.194;17.150;2023-12-04T01:22:05;15.63;;;9.32;;
17631;SDS011;8934;51.194;17.150;2023-12-04T01:24:54;23.23;;;12.40;;
17631;SDS011;8934;51.194;17.150;2023-12-04T01:27:43;22.08;;;10.38;;
17631;SDS011;8934;51.194;17.150;2023-12-04T01:30:31;25.20;;;12.60;;
17631;SDS011;8934;51.194;17.150;2023-12-04T01:33:18;23.45;;;9.40;;
17631;SDS011;8934;51.194;17.150;2023-12-04T01:36:06;20.92;;;8.85;;
17631;SDS011;8934;51.194;17.150;2023-12-04T01:38:54;17.15;;;9.48;;
17631;SDS011;8934;51.194;17.150;2023-12-04T01:41:42;19.45;;;7.85;;
17631;SDS011;8934;51.194;17.150;2023-12-04T01:44:31;11.02;;;5.32;;
17631;SDS011;8934;51.194;17.150;2023-12-04T01:47:18;20.95;;;10.18;;
17631;SDS011;8934;51.194;17.150;2023-12-04T01:50:07;21.23;;;9.38;;
17631;SDS011;8934;51.194;17.150;2023-12-04T01:52:55;14.93;;;9.55;;
17631;SDS011;8934;51.194;17.150;2023-12-04T01:55:43;23.40;;;7.85;;
17631;SDS011;8934;51.194;17.150;2023-12-04T01:58:31;33.72;;;12.40;;
17631;SDS011;8934;51.194;17.150;2023-12-04T02:01:20;12.88;;;8.43;;
17631;SDS011;8934;51.194;17.150;2023-12-04T02:04:11;17.92;;;9.70;;
17631;SDS011;8934;51.194;17.150;2023-12-04T02:06:59;18.85;;;12.25;;
17631;SDS011;8934;51.194;17.150;2023-12-04T02:09:47;14.35;;;8.55;;
17631;SDS011;8934;51.194;17.150;2023-12-04T02:12:35;24.85;;;10.32;;
17631;SDS011;8934;51.194;17.150;2023-12-04T02:15:23;11.40;;;8.23;;
17631;SDS011;8934;51.194;17.150;2023-12-04T02:18:12;16.35;;;8.18;;
17631;SDS011;8934;51.194;17.150;2023-12-04T02:21:00;14.00;;;6.20;;
17631;SDS011;8934;51.194;17.150;2023-12-04T02:23:50;20.58;;;7.93;;
17631;SDS011;8934;51.194;17.150;2023-12-04T02:26:39;20.38;;;10.27;;
17631;SDS011;8934;51.194;17.150;2023-12-04T02:29:32;15.43;;;9.13;;
17631;SDS011;8934;51.194;17.150;2023-12-04T02:32:26;14.50;;;7.65;;
17631;SDS011;8934;51.194;17.150;2023-12-04T02:35:19;14.50;;;8.48;;
17631;SDS011;8934;51.194;17.150;2023-12-04T02:38:09;12.38;;;8.07;;
17631;SDS011;8934;51.194;17.150;2023-12-04T02:40:58;21.98;;;7.40;;
17631;SDS011;8934;51.194;17.150;2023-12-04T02:43:46;30.30;;;10.55;;
17631;SDS011;8934;51.194;17.150;2023-12-04T02:46:34;13.73;;;8.73;;
17631;SDS011;8934;51.194;17.150;2023-12-04T02:49:22;15.35;;;9.13;;
17631;SDS011;8934;51.194;17.150;2023-12-04T02:52:10;6.03;;;5.43;;
17631;SDS011;8934;51.194;17.150;2023-12-04T02:54:57;12.70;;;7.93;;
17631;SDS011;8934;51.194;17.150;2023-12-04T02:57:46;12.98;;;5.68;;
17631;SDS011;8934;51.194;17.150;2023-12-04T03:00:34;9.20;;;7.32;;
17631;SDS011;8934;51.194;17.150;2023-12-04T03:03:22;25.35;;;10.23;;
17631;SDS011;8934;51.194;17.150;2023-12-04T03:06:09;17.05;;;8.55;;
17631;SDS011;8934;51.194;17.150;2023-12-04T03:08:58;24.80;;;7.90;;
17631;SDS011;8934;51.194;17.150;2023-12-04T03:11:46;24.42;;;6.68;;
17631;SDS011;8934;51.194;17.150;2023-12-04T03:14:35;14.45;;;6.93;;
17631;SDS011;8934;51.194;17.150;2023-12-04T03:17:22;12.35;;;7.40;;
17631;SDS011;8934;51.194;17.150;2023-12-04T03:20:10;16.92;;;11.40;;
17631;SDS011;8934;51.194;17.150;2023-12-04T03:22:58;26.20;;;9.77;;
17631;SDS011;8934;51.194;17.150;2023-12-04T03:25:45;16.13;;;9.18;;
17631;SDS011;8934;51.194;17.150;2023-12-04T03:28:33;21.35;;;8.88;;
17631;SDS011;8934;51.194;17.150;2023-12-04T03:31:22;12.93;;;8.63;;
17631;SDS011;8934;51.194;17.150;2023-12-04T03:34:10;16.15;;;11.68;;
17631;SDS011;8934;51.194;17.150;2023-12-04T03:36:58;22.85;;;9.73;;
17631;SDS011;8934;51.194;17.150;2023-12-04T03:39:46;21.52;;;9.35;;
17631;SDS011;8934;51.194;17.150;2023-12-04T03:42:34;19.98;;;8.43;;
17631;SDS011;8934;51.194;17.150;2023-12-04T03:45:21;29.13;;;9.23;;
17631;SDS011;8934;51.194;17.150;2023-12-04T03:48:10;19.40;;;10.50;;
17631;SDS011;8934;51.194;17.150;2023-12-04T03:50:58;18.90;;;8.85;;
17631;SDS011;8934;51.194;17.150;2023-12-04T03:53:46;13.05;;;7.45;;
17631;SDS011;8934;51.194;17.150;2023-12-04T03:56:34;27.70;;;10.13;;
17631;SDS011;8934;51.194;17.150;2023-12-04T03:59:21;30.30;;;9.85;;
17631;SDS011;8934;51.194;17.150;2023-12-04T04:02:09;16.33;;;9.55;;
17631;SDS011;8934;51.194;17.150;2023-12-04T04:04:58;22.65;;;10.65;;
17631;SDS011;8934;51.194;17.150;2023-12-04T04:07:46;28.38;;;15.30;;
17631;SDS011;8934;51.194;17.150;2023-12-04T04:10:34;35.15;;;13.48;;
17631;SDS011;8934;51.194;17.150;2023-12-04T04:13:22;41.33;;;13.15;;
17631;SDS011;8934;51.194;17.150;2023-12-04T04:16:12;27.20;;;12.50;;
17631;SDS011;8934;51.194;17.150;2023-12-04T04:19:01;26.48;;;11.77;;
17631;SDS011;8934;51.194;17.150;2023-12-04T04:21:51;20.00;;;12.70;;
17631;SDS011;8934;51.194;17.150;2023-12-04T04:24:39;34.17;;;17.35;;
17631;SDS011;8934;51.194;17.150;2023-12-04T04:27:26;28.30;;;13.02;;
17631;SDS011;8934;51.194;17.150;2023-12-04T04:30:14;16.58;;;10.93;;
17631;SDS011;8934;51.194;17.150;2023-12-04T04:33:03;15.20;;;8.30;;
17631;SDS011;8934;51.194;17.150;2023-12-04T04:35:51;28.67;;;11.77;;
17631;SDS011;8934;51.194;17.150;2023-12-04T04:38:40;16.83;;;10.40;;
17631;SDS011;8934;51.194;17.150;2023-12-04T04:41:28;34.70;;;12.38;;
17631;SDS011;8934;51.194;17.150;2023-12-04T04:44:15;10.15;;;8.57;;
17631;SDS011;8934;51.194;17.150;2023-12-04T04:47:03;25.10;;;10.40;;
17631;SDS011;8934;51.194;17.150;2023-12-04T04:49:51;25.42;;;10.20;;
17631;SDS011;8934;51.194;17.150;2023-12-04T04:52:39;14.07;;;8.52;;
17631;SDS011;8934;51.194;17.150;2023-12-04T04:55:28;20.20;;;9.45;;
17631;SDS011;8934;51.194;17.150;2023-12-04T04:58:34;16.88;;;10.77;;
17631;SDS011;8934;51.194;17.150;2023-12-04T05:01:21;14.77;;;9.00;;
17631;SDS011;8934;51.194;17.150;2023-12-04T05:04:10;12.45;;;6.30;;
17631;SDS011;8934;51.194;17.150;2023-12-04T05:06:58;14.93;;;10.18;;
17631;SDS011;8934;51.194;17.150;2023-12-04T05:09:46;18.02;;;11.18;;
17631;SDS011;8934;51.194;17.150;2023-12-04T05:12:35;17.27;;;10.57;;
17631;SDS011;8934;51.194;17.150;2023-12-04T05:15:22;21.30;;;10.18;;
17631;SDS011;8934;51.194;17.150;2023-12-04T05:18:10;31.95;;;11.98;;
17631;SDS011;8934;51.194;17.150;2023-12-04T05:20:58;12.85;;;7.65;;
17631;SDS011;8934;51.194;17.150;2023-12-04T05:23:45;22.10;;;10.55;;
17631;SDS011;8934;51.194;17.150;2023-12-04T05:26:32;26.30;;;11.38;;
17631;SDS011;8934;51.194;17.150;2023-12-04T05:29:21;16.30;;;7.97;;
17631;SDS011;8934;51.194;17.150;2023-12-04T05:32:09;12.00;;;9.73;;
17631;SDS011;8934;51.194;17.150;2023-12-04T05:34:58;19.45;;;11.60;;
17631;SDS011;8934;51.194;17.150;2023-12-04T05:37:45;25.45;;;9.02;;
17631;SDS011;8934;51.194;17.150;2023-12-04T05:40:33;23.58;;;11.80;;
17631;SDS011;8934;51.194;17.150;2023-12-04T05:43:21;17.65;;;10.77;;
17631;SDS011;8934;51.194;17.150;2023-12-04T05:46:10;33.45;;;14.68;;
17631;SDS011;8934;51.194;17.150;2023-12-04T05:48:59;21.17;;;10.45;;
17631;SDS011;8934;51.194;17.150;2023-12-04T05:51:47;11.48;;;5.70;;
17631;SDS011;8934;51.194;17.150;2023-12-04T05:54:34;27.27;;;11.88;;
17631;SDS011;8934;51.194;17.150;2023-12-04T05:57:22;22.95;;;9.95;;
17631;SDS011;8934;51.194;17.150;2023-12-04T06:00:10;16.80;;;7.50;;
17631;SDS011;8934;51.194;17.150;2023-12-04T06:03:00;16.35;;;9.18;;
17631;SDS011;8934;51.194;17.150;2023-12-04T06:05:48;17.27;;;10.02;;
17631;SDS011;8934;51.194;17.150;2023-12-04T06:08:39;21.65;;;8.98;;
17631;SDS011;8934;51.194;17.150;2023-12-04T06:11:27;21.17;;;11.43;;
17631;SDS011;8934;51.194;17.150;2023-12-04T06:14:14;26.42;;;10.90;;
17631;SDS011;8934;51.194;17.150;2023-12-04T06:17:02;11.82;;;8.23;;
17631;SDS011;8934;51.194;17.150;2023-12-04T06:19:52;9.35;;;5.65;;
17631;SDS011;8934;51.194;17.150;2023-12-04T06:22:40;14.32;;;7.20;;
17631;SDS011;8934;51.194;17.150;2023-12-04T06:25:29;24.30;;;7.63;;
17631;SDS011;8934;51.194;17.150;2023-12-04T06:28:17;24.65;;;9.18;;
17631;SDS011;8934;51.194;17.150;2023-12-04T06:31:06;26.52;;;8.15;;
17631;SDS011;8934;51.194;17.150;2023-12-04T06:33:54;14.20;;;6.13;;
17631;SDS011;8934;51.194;17.150;2023-12-04T06:36:44;23.88;;;9.07;;
17631;SDS011;8934;51.194;17.150;2023-12-04T06:39:32;20.33;;;10.23;;
17631;SDS011;8934;51.194;17.150;2023-12-04T06:42:21;7.15;;;5.65;;
17631;SDS011;8934;51.194;17.150;2023-12-04T06:45:09;20.08;;;7.18;;
17631;SDS011;8934;51.194;17.150;2023-12-04T06:47:58;14.20;;;8.63;;
17631;SDS011;8934;51.194;17.150;2023-12-04T06:50:46;20.50;;;8.95;;
17631;SDS011;8934;51.194;17.150;2023-12-04T06:53:35;25.70;;;9.32;;
17631;SDS011;8934;51.194;17.150;2023-12-04T06:56:23;18.23;;;7.13;;
17631;SDS011;8934;51.194;17.150;2023-12-04T06:59:10;8.48;;;5.70;;
17631;SDS011;8934;51.194;17.150;2023-12-04T07:01:58;11.00;;;6.88;;
17631;SDS011;8934;51.194;17.150;2023-12-04T07:04:45;16.63;;;7.78;;
17631;SDS011;8934;51.194;17.150;2023-12-04T07:07:33;21.75;;;7.45;;
17631;SDS011;8934;51.194;17.150;2023-12-04T07:10:22;9.80;;;4.85;;
17631;SDS011;8934;51.194;17.150;2023-12-04T07:13:10;16.50;;;8.68;;
17631;SDS011;8934;51.194;17.150;2023-12-04T07:15:59;11.80;;;7.18;;
17631;SDS011;8934;51.194;17.150;2023-12-04T07:18:47;9.80;;;6.75;;
17631;SDS011;8934;51.194;17.150;2023-12-04T07:21:35;9.73;;;5.85;;
17631;SDS011;8934;51.194;17.150;2023-12-04T07:24:23;28.50;;;9.23;;
17631;SDS011;8934;51.194;17.150;2023-12-04T07:27:14;13.35;;;8.93;;
17631;SDS011;8934;51.194;17.150;2023-12-04T07:30:02;19.25;;;7.13;;
17631;SDS011;8934;51.194;17.150;2023-12-04T07:32:50;19.00;;;6.95;;
17631;SDS011;8934;51.194;17.150;2023-12-04T07:35:39;31.02;;;7.60;;
17631;SDS011;8934;51.194;17.150;2023-12-04T07:38:26;7.63;;;6.88;;
17631;SDS011;8934;51.194;17.150;2023-12-04T07:41:14;11.00;;;8.27;;
17631;SDS011;8934;51.194;17.150;2023-12-04T07:44:03;13.48;;;8.13;;
17631;SDS011;8934;51.194;17.150;2023-12-04T07:46:51;10.35;;;6.28;;
17631;SDS011;8934;51.194;17.150;2023-12-04T07:49:38;28.42;;;10.73;;
17631;SDS011;8934;51.194;17.150;2023-12-04T07:52:26;18.10;;;8.38;;
17631;SDS011;8934;51.194;17.150;2023-12-04T07:55:14;25.05;;;10.35;;
17631;SDS011;8934;51.194;17.150;2023-12-04T07:58:02;23.70;;;10.60;;
17631;SDS011;8934;51.194;17.150;2023-12-04T08:00:51;32.05;;;11.10;;
17631;SDS011;8934;51.194;17.150;2023-12-04T08:03:39;25.63;;;11.88;;
17631;SDS011;8934;51.194;17.150;2023-12-04T08:06:27;25.40;;;10.70;;
17631;SDS011;8934;51.194;17.150;2023-12-04T08:09:15;23.02;;;11.75;;
17631;SDS011;8934;51.194;17.150;2023-12-04T08:12:03;18.65;;;8.85;;
17631;SDS011;8934;51.194;17.150;2023-12-04T08:14:51;27.88;;;12.55;;
17631;SDS011;8934;51.194;17.150;2023-12-04T08:17:40;28.50;;;11.73;;
17631;SDS011;8934;51.194;17.150;2023-12-04T08:20:28;27.92;;;13.90;;
17631;SDS011;8934;51.194;17.150;2023-12-04T08:26:12;26.15;;;11.45;;
17631;SDS011;8934;51.194;17.150;2023-12-04T08:29:01;21.13;;;11.52;;
17631;SDS011;8934;51.194;17.150;2023-12-04T08:31:49;31.60;;;14.77;;
17631;SDS011;8934;51.194;17.150;2023-12-04T08:34:38;31.35;;;15.55;;
17631;SDS011;8934;51.194;17.150;2023-12-04T08:37:26;32.55;;;14.55;;
17631;SDS011;8934;51.194;17.150;2023-12-04T08:40:14;25.05;;;12.48;;
17631;SDS011;8934;51.194;17.150;2023-12-04T08:43:02;22.90;;;13.93;;
17631;SDS011;8934;51.194;17.150;2023-12-04T08:45:50;34.67;;;15.65;;
17631;SDS011;8934;51.194;17.150;2023-12-04T08:48:37;27.80;;;13.32;;
17631;SDS011;8934;51.194;17.150;2023-12-04T08:51:29;32.33;;;17.08;;
17631;SDS011;8934;51.194;17.150;2023-12-04T08:54:19;33.75;;;15.90;;
17631;SDS011;8934;51.194;17.150;2023-12-04T08:57:07;41.55;;;18.20;;
17631;SDS011;8934;51.194;17.150;2023-12-04T08:59:54;36.67;;;15.55;;
17631;SDS011;8934;51.194;17.150;2023-12-04T09:02:41;38.00;;;17.60;;
17631;SDS011;8934;51.194;17.150;2023-12-04T09:05:39;47.00;;;19.73;;
17631;SDS011;8934;51.194;17.150;2023-12-04T09:08:28;37.13;;;17.05;;
17631;SDS011;8934;51.194;17.150;2023-12-04T09:11:25;38.35;;;19.60;;
17631;SDS011;8934;51.194;17.150;2023-12-04T09:14:14;37.88;;;16.98;;
17631;SDS011;8934;51.194;17.150;2023-12-04T09:17:02;34.83;;;15.35;;
17631;SDS011;8934;51.194;17.150;2023-12-04T09:19:50;61.15;;;20.45;;
17631;SDS011;8934;51.194;17.150;2023-12-04T09:22:38;39.00;;;18.75;;
17631;SDS011;8934;51.194;17.150;2023-12-04T09:25:38;41.95;;;17.55;;
17631;SDS011;8934;51.194;17.150;2023-12-04T09:28:26;34.63;;;18.67;;
17631;SDS011;8934;51.194;17.150;2023-12-04T09:31:14;58.28;;;18.90;;
17631;SDS011;8934;51.194;17.150;2023-12-04T09:34:01;40.40;;;20.35;;
17631;SDS011;8934;51.194;17.150;2023-12-04T09:36:49;49.15;;;20.75;;
17631;SDS011;8934;51.194;17.150;2023-12-04T09:39:40;48.85;;;19.73;;
17631;SDS011;8934;51.194;17.150;2023-12-04T09:42:29;45.40;;;20.30;;
17631;SDS011;8934;51.194;17.150;2023-12-04T09:45:18;52.92;;;23.00;;
17631;SDS011;8934;51.194;17.150;2023-12-04T09:48:07;43.30;;;16.88;;
17631;SDS011;8934;51.194;17.150;2023-12-04T09:50:56;55.63;;;21.10;;
17631;SDS011;8934;51.194;17.150;2023-12-04T09:53:46;53.80;;;17.65;;
17631;SDS011;8934;51.194;17.150;2023-12-04T09:56:34;44.03;;;15.77;;
17631;SDS011;8934;51.194;17.150;2023-12-04T09:59:24;34.35;;;14.90;;
17631;SDS011;8934;51.194;17.150;2023-12-04T10:02:12;42.20;;;18.58;;
17631;SDS011;8934;51.194;17.150;2023-12-04T10:05:00;36.45;;;15.85;;
17631;SDS011;8934;51.194;17.150;2023-12-04T10:07:50;32.85;;;15.13;;
17631;SDS011;8934;51.194;17.150;2023-12-04T10:10:38;32.67;;;15.25;;
17631;SDS011;8934;51.194;17.150;2023-12-04T10:13:26;28.08;;;12.32;;
17631;SDS011;8934;51.194;17.150;2023-12-04T10:16:36;33.45;;;14.45;;
17631;SDS011;8934;51.194;17.150;2023-12-04T10:19:24;44.88;;;19.10;;
17631;SDS011;8934;51.194;17.150;2023-12-04T10:22:12;38.25;;;17.92;;
17631;SDS011;8934;51.194;17.150;2023-12-04T10:25:00;39.97;;;17.65;;
17631;SDS011;8934;51.194;17.150;2023-12-04T10:28:08;39.83;;;18.20;;
17631;SDS011;8934;51.194;17.150;2023-12-04T10:30:57;35.50;;;16.83;;
17631;SDS011;8934;51.194;17.150;2023-12-04T10:33:46;36.90;;;14.75;;
17631;SDS011;8934;51.194;17.150;2023-12-04T10:36:35;33.05;;;15.35;;
17631;SDS011;8934;51.194;17.150;2023-12-04T10:39:24;32.25;;;14.95;;
17631;SDS011;8934;51.194;17.150;2023-12-04T10:42:24;31.42;;;14.00;;
17631;SDS011;8934;51.194;17.150;2023-12-04T10:45:12;38.88;;;15.23;;
17631;SDS011;8934;51.194;17.150;2023-12-04T10:48:00;28.65;;;13.50;;
17631;SDS011;8934;51.194;17.150;2023-12-04T10:50:52;29.73;;;12.48;;
17631;SDS011;8934;51.194;17.150;2023-12-04T10:53:40;37.17;;;15.75;;
17631;SDS011;8934;51.194;17.150;2023-12-04T10:56:30;30.70;;;14.23;;
17631;SDS011;8934;51.194;17.150;2023-12-04T10:59:25;27.10;;;12.18;;
17631;SDS011;8934;51.194;17.150;2023-12-04T11:02:17;28.77;;;12.40;;
17631;SDS011;8934;51.194;17.150;2023-12-04T11:05:08;30.90;;;12.60;;
17631;SDS011;8934;51.194;17.150;2023-12-04T11:08:04;39.90;;;14.50;;
17631;SDS011;8934;51.194;17.150;2023-12-04T11:11:03;35.42;;;16.23;;
17631;SDS011;8934;51.194;17.150;2023-12-04T11:13:54;38.67;;;16.77;;
17631;SDS011;8934;51.194;17.150;2023-12-04T11:16:46;29.98;;;15.55;;
17631;SDS011;8934;51.194;17.150;2023-12-04T11:19:36;27.92;;;13.48;;
17631;SDS011;8934;51.194;17.150;2023-12-04T11:22:30;29.20;;;13.95;;
17631;SDS011;8934;51.194;17.150;2023-12-04T11:25:19;33.55;;;13.85;;
17631;SDS011;8934;51.194;17.150;2023-12-04T11:28:11;28.35;;;12.73;;
17631;SDS011;8934;51.194;17.150;2023-12-04T11:30:59;30.73;;;14.75;;
17631;SDS011;8934;51.194;17.150;2023-12-04T11:33:48;30.50;;;13.52;;
17631;SDS011;8934;51.194;17.150;2023-12-04T11:36:35;35.35;;;14.38;;
17631;SDS011;8934;51.194;17.150;2023-12-04T11:39:25;30.38;;;12.20;;
17631;SDS011;8934;51.194;17.150;2023-12-04T11:42:14;36.65;;;13.30;;
17631;SDS011;8934;51.194;17.150;2023-12-04T11:45:07;36.60;;;15.65;;
17631;SDS011;8934;51.194;17.150;2023-12-04T11:47:55;42.38;;;16.23;;
17631;SDS011;8934;51.194;17.150;2023-12-04T11:50:44;33.33;;;15.02;;
17631;SDS011;8934;51.194;17.150;2023-12-04T11:53:32;31.92;;;13.30;;
17631;SDS011;8934;51.194;17.150;2023-12-04T11:56:19;28.88;;;14.18;;
17631;SDS011;8934;51.194;17.150;2023-12-04T11:59:08;26.55;;;13.32;;
17631;SDS011;8934;51.194;17.150;2023-12-04T12:01:58;27.23;;;12.52;;
17631;SDS011;8934;51.194;17.150;2023-12-04T12:04:47;25.95;;;13.57;;
17631;SDS011;8934;51.194;17.150;2023-12-04T12:07:35;27.42;;;11.98;;
17631;SDS011;8934;51.194;17.150;2023-12-04T12:10:23;31.50;;;14.88;;
17631;SDS011;8934;51.194;17.150;2023-12-04T12:13:11;27.05;;;14.18;;
17631;SDS011;8934;51.194;17.150;2023-12-04T12:16:00;26.42;;;12.90;;
17631;SDS011;8934;51.194;17.150;2023-12-04T12:18:49;22.42;;;11.57;;
17631;SDS011;8934;51.194;17.150;2023-12-04T12:21:37;24.25;;;10.52;;
17631;SDS011;8934;51.194;17.150;2023-12-04T12:24:25;21.25;;;9.95;;
17631;SDS011;8934;51.194;17.150;2023-12-04T12:27:13;20.27;;;10.75;;
17631;SDS011;8934;51.194;17.150;2023-12-04T12:30:01;25.95;;;11.40;;
17631;SDS011;8934;51.194;17.150;2023-12-04T12:32:51;27.77;;;12.05;;
17631;SDS011;8934;51.194;17.150;2023-12-04T12:35:39;22.45;;;12.65;;
17631;SDS011;8934;51.194;17.150;2023-12-04T12:38:33;22.48;;;10.65;;
17631;SDS011;8934;51.194;17.150;2023-12-04T12:41:22;30.20;;;11.82;;
17631;SDS011;8934;51.194;17.150;2023-12-04T12:44:10;30.15;;;12.32;;
17631;SDS011;8934;51.194;17.150;2023-12-04T12:46:58;29.77;;;11.85;;
17631;SDS011;8934;51.194;17.150;2023-12-04T12:49:51;36.08;;;15.00;;
17631;SDS011;8934;51.194;17.150;2023-12-04T12:52:40;29.25;;;13.02;;
17631;SDS011;8934;51.194;17.150;2023-12-04T12:55:28;40.75;;;15.80;;
17631;SDS011;8934;51.194;17.150;2023-12-04T12:58:15;29.45;;;13.80;;
17631;SDS011;8934;51.194;17.150;2023-12-04T13:01:09;28.58;;;12.82;;
17631;SDS011;8934;51.194;17.150;2023-12-04T13:03:57;37.83;;;14.38;;
17631;SDS011;8934;51.194;17.150;2023-12-04T13:06:47;30.23;;;13.90;;
17631;SDS011;8934;51.194;17.150;2023-12-04T13:09:35;36.13;;;13.40;;
17631;SDS011;8934;51.194;17.150;2023-12-04T13:12:23;29.48;;;12.88;;
17631;SDS011;8934;51.194;17.150;2023-12-04T13:15:11;32.95;;;13.10;;
17631;SDS011;8934;51.194;17.150;2023-12-04T13:17:59;33.85;;;15.35;;
17631;SDS011;8934;51.194;17.150;2023-12-04T13:20:48;28.00;;;13.18;;
17631;SDS011;8934;51.194;17.150;2023-12-04T13:23:37;33.00;;;13.90;;
17631;SDS011;8934;51.194;17.150;2023-12-04T13:26:25;37.85;;;13.18;;
17631;SDS011;8934;51.194;17.150;2023-12-04T13:29:13;35.28;;;16.30;;
17631;SDS011;8934;51.194;17.150;2023-12-04T13:32:03;28.40;;;13.50;;
17631;SDS011;8934;51.194;17.150;2023-12-04T13:34:52;46.72;;;18.10;;
17631;SDS011;8934;51.194;17.150;2023-12-04T13:37:41;36.28;;;15.77;;
17631;SDS011;8934;51.194;17.150;2023-12-04T13:40:30;33.88;;;15.85;;
17631;SDS011;8934;51.194;17.150;2023-12-04T13:43:20;34.75;;;15.07;;
17631;SDS011;8934;51.194;17.150;2023-12-04T13:46:25;30.73;;;14.02;;
17631;SDS011;8934;51.194;17.150;2023-12-04T13:49:17;28.63;;;13.23;;
17631;SDS011;8934;51.194;17.150;2023-12-04T13:52:05;37.33;;;13.52;;
17631;SDS011;8934;51.194;17.150;2023-12-04T13:54:53;34.03;;;17.80;;
17631;SDS011;8934;51.194;17.150;2023-12-04T13:57:44;31.48;;;13.07;;
17631;SDS011;8934;51.194;17.150;2023-12-04T14:00:46;42.95;;;19.38;;
17631;SDS011;8934;51.194;17.150;2023-12-04T14:03:34;43.08;;;17.38;;
17631;SDS011;8934;51.194;17.150;2023-12-04T14:06:23;36.92;;;16.63;;
17631;SDS011;8934;51.194;17.150;2023-12-04T14:09:11;41.80;;;17.17;;
17631;SDS011;8934;51.194;17.150;2023-12-04T14:12:01;33.85;;;17.45;;
17631;SDS011;8934;51.194;17.150;2023-12-04T14:14:50;39.30;;;18.63;;
17631;SDS011;8934;51.194;17.150;2023-12-04T14:17:43;48.00;;;18.95;;
17631;SDS011;8934;51.194;17.150;2023-12-04T14:20:32;38.67;;;15.85;;
17631;SDS011;8934;51.194;17.150;2023-12-04T14:23:19;47.95;;;18.60;;
17631;SDS011;8934;51.194;17.150;2023-12-04T14:26:07;42.65;;;17.17;;
17631;SDS011;8934;51.194;17.150;2023-12-04T14:28:55;49.33;;;19.58;;
17631;SDS011;8934;51.194;17.150;2023-12-04T14:31:48;48.67;;;18.67;;
17631;SDS011;8934;51.194;17.150;2023-12-04T14:34:36;56.25;;;18.88;;
17631;SDS011;8934;51.194;17.150;2023-12-04T14:37:24;48.58;;;17.80;;
17631;SDS011;8934;51.194;17.150;2023-12-04T14:40:12;62.50;;;21.08;;
17631;SDS011;8934;51.194;17.150;2023-12-04T14:43:01;45.38;;;18.77;;
17631;SDS011;8934;51.194;17.150;2023-12-04T14:45:49;50.47;;;17.73;;
17631;SDS011;8934;51.194;17.150;2023-12-04T14:48:38;34.67;;;16.60;;
17631;SDS011;8934;51.194;17.150;2023-12-04T14:51:27;38.88;;;14.93;;
17631;SDS011;8934;51.194;17.150;2023-12-04T14:54:14;25.52;;;13.57;;
17631;SDS011;8934;51.194;17.150;2023-12-04T14:57:08;45.05;;;16.70;;
17631;SDS011;8934;51.194;17.150;2023-12-04T15:00:29;34.83;;;14.88;;
17631;SDS011;8934;51.194;17.150;2023-12-04T15:06:57;35.40;;;14.25;;
17631;SDS011;8934;51.194;17.150;2023-12-04T15:09:59;28.30;;;12.73;;
17631;SDS011;8934;51.194;17.150;2023-12-04T15:13:10;36.08;;;14.38;;
17631;SDS011;8934;51.194;17.150;2023-12-04T15:16:14;23.77;;;11.88;;
17631;SDS011;8934;51.194;17.150;2023-12-04T15:19:28;30.95;;;13.10;;
17631;SDS011;8934;51.194;17.150;2023-12-04T15:22:23;33.05;;;13.27;;
17631;SDS011;8934;51.194;17.150;2023-12-04T15:25:10;28.67;;;13.32;;
17631;SDS011;8934;51.194;17.150;2023-12-04T15:27:59;27.45;;;11.73;;
17631;SDS011;8934;51.194;17.150;2023-12-04T15:30:49;30.63;;;13.77;;
17631;SDS011;8934;51.194;17.150;2023-12-04T15:33:37;31.13;;;12.90;;
17631;SDS011;8934;51.194;17.150;2023-12-04T15:36:24;30.63;;;11.52;;
17631;SDS011;8934;51.194;17.150;2023-12-04T15:39:13;32.70;;;13.98;;
17631;SDS011;8934;51.194;17.150;2023-12-04T15:42:05;35.20;;;13.10;;
17631;SDS011;8934;51.194;17.150;2023-12-04T15:44:52;26.02;;;11.90;;
17631;SDS011;8934;51.194;17.150;2023-12-04T15:47:41;26.98;;;13.73;;
17631;SDS011;8934;51.194;17.150;2023-12-04T15:50:27;27.95;;;12.85;;
17631;SDS011;8934;51.194;17.150;2023-12-04T15:53:15;26.02;;;12.60;;
17631;SDS011;8934;51.194;17.150;2023-12-04T15:56:04;40.17;;;16.25;;
17631;SDS011;8934;51.194;17.150;2023-12-04T15:58:52;34.28;;;15.82;;
17631;SDS011;8934;51.194;17.150;2023-12-04T16:01:41;31.70;;;13.05;;
17631;SDS011;8934;51.194;17.150;2023-12-04T16:04:29;37.50;;;13.90;;
17631;SDS011;8934;51.194;17.150;2023-12-04T16:07:16;41.88;;;14.32;;
17631;SDS011;8934;51.194;17.150;2023-12-04T16:10:05;35.03;;;15.35;;
17631;SDS011;8934;51.194;17.150;2023-12-04T16:12:55;36.45;;;14.63;;
17631;SDS011;8934;51.194;17.150;2023-12-04T16:15:42;31.70;;;13.63;;
17631;SDS011;8934;51.194;17.150;2023-12-04T16:18:33;31.42;;;13.05;;
17631;SDS011;8934;51.194;17.150;2023-12-04T16:21:21;34.80;;;15.10;;
17631;SDS011;8934;51.194;17.150;2023-12-04T16:24:09;28.85;;;13.00;;
17631;SDS011;8934;51.194;17.150;2023-12-04T16:26:57;46.58;;;17.38;;
17631;SDS011;8934;51.194;17.150;2023-12-04T16:29:46;31.00;;;13.23;;
17631;SDS011;8934;51.194;17.150;2023-12-04T16:32:34;38.22;;;15.23;;
17631;SDS011;8934;51.194;17.150;2023-12-04T16:35:23;40.08;;;17.10;;
17631;SDS011;8934;51.194;17.150;2023-12-04T16:38:10;41.28;;;17.02;;
17631;SDS011;8934;51.194;17.150;2023-12-04T16:40:58;39.35;;;16.30;;